createdAt,value
2017-08-24T00:01:29.013Z,100026.66
2017-08-24T00:03:55.055Z,100027.92
2017-08-24T00:06:21.165Z,100027.78
2017-08-24T00:08:47.229Z,100020.36
2017-08-24T00:11:13.289Z,100019.28
2017-08-24T00:13:39.395Z,100015.49
2017-08-24T00:16:05.450Z,100014.92
2017-08-24T00:18:31.519Z,100017.02
2017-08-24T00:20:57.604Z,100022.44
2017-08-24T00:23:23.651Z,100018.12
2017-08-24T00:25:49.719Z,100010.52
2017-08-24T00:28:15.817Z,100018.12
2017-08-24T00:30:41.909Z,100018.22
2017-08-24T00:33:07.951Z,100008.37
2017-08-24T00:35:34.036Z,100005.31
2017-08-24T00:38:00.122Z,100007.25
2017-08-24T00:40:26.189Z,100001.48
2017-08-24T00:42:52.275Z,100000.45
2017-08-24T00:45:18.356Z,99995.67
2017-08-24T00:47:44.433Z,100003.27
2017-08-24T00:50:10.515Z,100003.82
2017-08-24T00:52:36.589Z,100005.25
2017-08-24T00:55:02.652Z,100000.98
2017-08-24T00:57:28.749Z,100006.49
2017-08-24T00:59:54.824Z,100002.43
2017-08-24T01:02:20.883Z,100001.09
2017-08-24T01:04:47.029Z,99999.07
2017-08-24T01:07:13.069Z,100000.83
2017-08-24T01:09:39.141Z,100000.56
2017-08-24T01:12:05.234Z,99997.59
2017-08-24T01:14:31.352Z,99991.84
2017-08-24T01:16:57.414Z,99992.29
2017-08-24T01:19:23.510Z,99989.23
2017-08-24T01:21:49.587Z,99988.44
2017-08-24T01:24:15.656Z,99985.94
2017-08-24T01:26:41.768Z,99989.42
2017-08-24T01:29:07.810Z,99988.61
2017-08-24T01:31:33.930Z,99986.23
2017-08-24T01:34:00.021Z,99989.84
2017-08-24T01:36:26.082Z,99987.52
2017-08-24T01:38:52.172Z,99985.00
2017-08-24T01:41:18.260Z,99983.22
2017-08-24T01:43:44.319Z,99977.08
2017-08-24T01:46:10.360Z,99975.27
2017-08-24T01:48:36.441Z,99975.97
2017-08-24T01:51:09.351Z,99968.59
2017-08-24T01:53:35.418Z,99966.48
2017-08-24T01:56:01.494Z,99959.06
2017-08-24T01:58:27.555Z,99966.03
2017-08-24T02:00:53.612Z,99962.13
2017-08-24T02:03:19.803Z,99966.88
2017-08-24T02:05:45.850Z,99964.70
2017-08-24T02:08:11.916Z,99963.19
2017-08-24T02:10:37.988Z,99956.83
2017-08-24T02:13:04.046Z,99955.97
2017-08-24T02:15:30.106Z,99959.12
2017-08-24T02:17:56.191Z,99947.95
2017-08-24T02:20:22.279Z,99948.23
2017-08-24T02:22:48.344Z,99936.95
2017-08-24T02:25:14.459Z,99934.08
2017-08-24T02:27:40.515Z,99929.89
2017-08-24T02:30:06.604Z,99926.59
2017-08-24T02:32:32.705Z,99929.53
2017-08-24T02:34:58.755Z,99933.93
2017-08-24T02:37:24.869Z,99936.60
2017-08-24T02:39:50.961Z,99927.25
2017-08-24T02:42:17.030Z,99925.39
2017-08-24T02:44:43.080Z,99922.13
2017-08-24T02:47:09.157Z,99920.80
2017-08-24T02:49:35.221Z,99916.10
2017-08-24T02:52:01.310Z,99918.35
2017-08-24T02:54:27.417Z,99912.09
2017-08-24T02:56:53.469Z,99911.19
2017-08-24T02:59:19.529Z,99909.52
2017-08-24T03:01:45.623Z,99915.16
2017-08-24T03:04:11.725Z,99915.09
2017-08-24T03:06:37.807Z,99912.89
2017-08-24T03:09:03.888Z,99906.14
2017-08-24T03:11:29.967Z,99911.25
2017-08-24T03:13:56.017Z,99907.39
2017-08-24T03:16:22.129Z,99901.36
2017-08-24T03:18:48.213Z,99903.89
2017-08-24T03:21:14.358Z,99904.70
2017-08-24T03:23:40.493Z,99905.02
2017-08-24T03:26:06.558Z,99898.08
2017-08-24T03:28:32.617Z,99897.33
2017-08-24T03:30:58.719Z,99896.34
2017-08-24T03:33:24.794Z,99896.39
2017-08-24T03:35:50.851Z,99898.39
2017-08-24T03:38:16.931Z,99897.70
2017-08-24T03:40:42.999Z,99899.73
2017-08-24T03:43:09.076Z,99900.14
2017-08-24T03:45:35.187Z,99895.01
2017-08-24T03:48:01.289Z,99906.18
2017-08-24T03:50:27.385Z,99894.67
2017-08-24T03:52:53.461Z,99895.91
2017-08-24T03:55:19.547Z,99892.92
2017-08-24T03:57:45.631Z,99899.92
2017-08-24T04:00:12.487Z,99900.34
2017-08-24T04:02:38.552Z,99902.09
2017-08-24T04:05:04.661Z,99903.52
2017-08-24T04:07:30.909Z,99900.22
2017-08-24T04:09:56.983Z,99900.22
2017-08-24T04:12:23.253Z,99902.20
2017-08-24T04:14:49.341Z,99898.98
2017-08-24T04:17:15.417Z,99902.10
2017-08-24T04:19:41.495Z,99895.86
2017-08-24T04:22:07.575Z,99893.52
2017-08-24T04:24:33.671Z,99894.99
2017-08-24T04:26:59.737Z,99898.34
2017-08-24T04:29:25.855Z,99891.52
2017-08-24T04:31:51.947Z,99893.37
2017-08-24T04:34:18.039Z,99888.84
2017-08-24T04:36:44.126Z,99889.84
2017-08-24T04:39:10.251Z,99893.29
2017-08-24T04:41:36.348Z,99891.41
2017-08-24T04:44:02.437Z,99892.73
2017-08-24T04:46:28.566Z,99894.68
2017-08-24T04:48:54.691Z,99890.44
2017-08-24T04:51:20.893Z,99881.98
2017-08-24T04:53:47.065Z,99880.41
2017-08-24T04:56:13.125Z,99881.14
2017-08-24T04:58:39.239Z,99875.27
2017-08-24T05:01:05.351Z,99876.37
2017-08-24T05:03:31.467Z,99881.44
2017-08-24T05:05:57.602Z,99886.30
2017-08-24T05:08:23.697Z,99879.19
2017-08-24T05:10:49.753Z,99884.28
2017-08-24T05:13:15.863Z,99876.29
2017-08-24T05:15:41.921Z,99879.06
2017-08-24T05:18:07.992Z,99875.39
2017-08-24T05:20:34.086Z,99877.39
2017-08-24T05:23:00.187Z,99876.85
2017-08-24T05:25:26.297Z,99880.58
2017-08-24T05:27:52.385Z,99879.53
2017-08-24T05:30:18.463Z,99879.72
2017-08-24T05:32:44.557Z,99881.14
2017-08-24T05:35:10.683Z,99875.59
2017-08-24T05:37:36.790Z,99877.86
2017-08-24T05:40:02.850Z,99881.34
2017-08-24T05:42:29.244Z,99871.64
2017-08-24T05:44:55.332Z,99869.22
2017-08-24T05:47:21.426Z,99865.77
2017-08-24T05:49:47.559Z,99862.36
2017-08-24T05:52:13.660Z,99864.92
2017-08-24T05:54:39.734Z,99866.89
2017-08-24T05:57:05.857Z,99866.59
2017-08-24T05:59:31.977Z,99867.38
2017-08-24T06:01:58.061Z,99865.73
2017-08-24T06:04:24.159Z,99863.98
2017-08-24T06:06:50.258Z,99859.88
2017-08-24T06:09:16.322Z,99854.21
2017-08-24T06:11:42.400Z,99856.78
2017-08-24T06:14:08.493Z,99867.34
2017-08-24T06:16:34.563Z,99863.83
2017-08-24T06:19:00.648Z,99869.79
2017-08-24T06:21:26.742Z,99871.84
2017-08-24T06:23:52.828Z,99866.22
2017-08-24T06:26:18.908Z,99865.59
2017-08-24T06:28:44.989Z,99860.86
2017-08-24T06:31:11.076Z,99861.66
2017-08-24T06:33:37.143Z,99865.52
2017-08-24T06:36:03.234Z,99864.91
2017-08-24T06:38:29.347Z,99864.28
2017-08-24T06:40:55.461Z,99866.33
2017-08-24T06:43:21.545Z,99864.59
2017-08-24T06:45:47.646Z,99867.43
2017-08-24T06:48:13.852Z,99853.28
2017-08-24T06:50:39.958Z,99863.11
2017-08-24T06:53:06.083Z,99864.77
2017-08-24T06:55:32.168Z,99862.20
2017-08-24T06:57:58.276Z,99867.34
2017-08-24T07:00:24.382Z,99867.88
2017-08-24T07:02:50.507Z,99858.56
2017-08-24T07:05:16.607Z,99854.31
2017-08-24T07:07:42.699Z,99854.06
2017-08-24T07:10:08.802Z,99853.47
2017-08-24T07:12:34.890Z,99859.07
2017-08-24T07:15:01.020Z,99852.41
2017-08-24T07:17:27.152Z,99859.73
2017-08-24T07:19:53.289Z,99862.08
2017-08-24T07:22:19.428Z,99850.53
2017-08-24T07:24:45.516Z,99851.51
2017-08-24T07:27:11.588Z,99853.63
2017-08-24T07:29:37.669Z,99844.66
2017-08-24T07:32:03.748Z,99840.31
2017-08-24T07:34:29.829Z,99845.74
2017-08-24T07:36:55.949Z,99848.29
2017-08-24T07:39:22.047Z,99841.28
2017-08-24T07:41:48.122Z,99839.33
2017-08-24T07:44:14.214Z,99841.30
2017-08-24T07:46:40.280Z,99840.91
2017-08-24T07:49:06.364Z,99839.76
2017-08-24T07:51:32.430Z,99847.56
2017-08-24T07:53:58.517Z,99852.80
2017-08-24T07:56:24.622Z,99844.85
2017-08-24T07:58:50.722Z,99843.91
2017-08-24T08:01:16.824Z,99843.45
2017-08-24T08:03:43.035Z,99838.88
2017-08-24T08:06:09.103Z,99832.10
2017-08-24T08:08:35.187Z,99834.45
2017-08-24T08:11:01.344Z,99833.05
2017-08-24T08:13:27.441Z,99832.17
2017-08-24T08:15:53.542Z,99840.05
2017-08-24T08:18:19.712Z,99838.27
2017-08-24T08:20:45.793Z,99839.28
2017-08-24T08:23:11.880Z,99844.22
2017-08-24T08:25:37.984Z,99835.84
2017-08-24T08:28:04.046Z,99840.56
2017-08-24T08:30:30.124Z,99835.06
2017-08-24T08:32:56.208Z,99831.15
2017-08-24T08:35:22.276Z,99832.59
2017-08-24T08:37:48.359Z,99833.46
2017-08-24T08:40:14.408Z,99833.16
2017-08-24T08:42:40.460Z,99829.04
2017-08-24T08:45:06.579Z,99834.73
2017-08-24T08:47:32.698Z,99830.92
2017-08-24T08:49:58.758Z,99827.22
2017-08-24T08:52:24.854Z,99829.16
2017-08-24T08:54:50.926Z,99825.94
2017-08-24T08:57:17.033Z,99827.63
2017-08-24T08:59:43.148Z,99825.73
2017-08-24T09:02:09.221Z,99828.38
2017-08-24T09:04:35.327Z,99827.97
2017-08-24T09:07:01.392Z,99825.95
2017-08-24T09:09:27.462Z,99830.44
2017-08-24T09:11:53.546Z,99835.53
2017-08-24T09:14:19.632Z,99839.02
2017-08-24T09:16:45.748Z,99839.32
2017-08-24T09:19:11.795Z,99842.66
2017-08-24T09:21:37.881Z,99842.94
2017-08-24T09:24:03.978Z,99841.05
2017-08-24T09:26:30.074Z,99834.94
2017-08-24T09:28:56.211Z,99837.67
2017-08-24T09:31:22.300Z,99831.42
2017-08-24T09:33:48.382Z,99843.36
2017-08-24T09:36:14.448Z,99841.88
2017-08-24T09:38:40.739Z,99838.72
2017-08-24T09:41:06.845Z,99841.02
2017-08-24T09:43:32.949Z,99837.20
2017-08-24T09:45:59.077Z,99838.09
2017-08-24T09:48:25.168Z,99841.07
2017-08-24T09:50:51.240Z,99842.89
2017-08-24T09:53:17.371Z,99832.03
2017-08-24T09:55:43.492Z,99836.43
2017-08-24T09:58:09.598Z,99837.25
2017-08-24T10:00:35.673Z,99830.12
2017-08-24T10:03:01.781Z,99826.77
2017-08-24T10:05:27.905Z,99822.72
2017-08-24T10:07:53.984Z,99823.81
2017-08-24T10:10:20.119Z,99826.23
2017-08-24T10:12:46.199Z,99828.95
2017-08-24T10:15:12.267Z,99833.53
2017-08-24T10:17:38.366Z,99835.63
2017-08-24T10:20:04.481Z,99829.02
2017-08-24T10:22:30.564Z,99836.09
2017-08-24T10:24:56.654Z,99833.84
2017-08-24T10:27:22.780Z,99832.44
2017-08-24T10:29:48.945Z,99827.21
2017-08-24T10:32:14.997Z,99829.09
2017-08-24T10:34:41.099Z,99832.14
2017-08-24T10:37:07.153Z,99839.42
2017-08-24T10:39:33.234Z,99836.52
2017-08-24T10:42:00.137Z,99835.09
2017-08-24T10:44:26.217Z,99827.71
2017-08-24T10:46:52.269Z,99825.09
2017-08-24T10:49:18.409Z,99818.77
2017-08-24T10:51:44.504Z,99823.56
2017-08-24T10:54:10.595Z,99816.58
2017-08-24T10:56:36.717Z,99818.33
2017-08-24T10:59:02.807Z,99825.63
2017-08-24T11:01:28.922Z,99821.12
2017-08-24T11:03:55.036Z,99818.48
2017-08-24T11:06:21.121Z,99814.70
2017-08-24T11:08:47.203Z,99814.41
2017-08-24T11:11:13.281Z,99816.08
2017-08-24T11:13:39.379Z,99812.52
2017-08-24T11:16:05.518Z,99806.78
2017-08-24T11:18:31.653Z,99806.61
2017-08-24T11:20:57.697Z,99805.81
2017-08-24T11:23:23.953Z,99797.44
2017-08-24T11:25:50.051Z,99802.95
2017-08-24T11:28:16.163Z,99805.34
2017-08-24T11:30:42.267Z,99813.13
2017-08-24T11:33:08.392Z,99816.42
2017-08-24T11:35:34.465Z,99810.16
2017-08-24T11:38:00.598Z,99814.08
2017-08-24T11:40:26.667Z,99813.21
2017-08-24T11:42:52.766Z,99808.23
2017-08-24T11:45:18.860Z,99807.49
2017-08-24T11:47:45.001Z,99800.34
2017-08-24T11:50:11.068Z,99799.89
2017-08-24T11:52:37.163Z,99798.76
2017-08-24T11:55:03.270Z,99799.93
2017-08-24T11:57:29.348Z,99798.20
2017-08-24T11:59:55.474Z,99796.28
2017-08-24T12:02:21.542Z,99795.25
2017-08-24T12:04:47.621Z,99795.98
2017-08-24T12:07:13.712Z,99796.16
2017-08-24T12:09:39.785Z,99795.31
2017-08-24T12:12:05.886Z,99788.54
2017-08-24T12:14:32.016Z,99793.30
2017-08-24T12:16:58.179Z,99797.70
2017-08-24T12:19:24.301Z,99792.55
2017-08-24T12:21:50.381Z,99794.50
2017-08-24T12:24:16.457Z,99784.05
2017-08-24T12:26:42.541Z,99782.88
2017-08-24T12:29:08.659Z,99779.63
2017-08-24T12:31:34.734Z,99783.12
2017-08-24T12:34:00.828Z,99780.17
2017-08-24T12:36:26.924Z,99777.59
2017-08-24T12:38:53.024Z,99776.80
2017-08-24T12:41:19.163Z,99780.11
2017-08-24T12:43:45.234Z,99783.52
2017-08-24T12:46:11.341Z,99782.30
2017-08-24T12:48:37.474Z,99779.23
2017-08-24T12:51:03.587Z,99783.38
2017-08-24T12:53:29.689Z,99779.52
2017-08-24T12:55:55.813Z,99782.20
2017-08-24T12:58:21.920Z,99785.01
2017-08-24T13:00:48.040Z,99783.96
2017-08-24T13:03:14.146Z,99786.03
2017-08-24T13:05:40.250Z,99783.10
2017-08-24T13:08:06.329Z,99776.81
2017-08-24T13:10:32.437Z,99778.34
2017-08-24T13:12:58.498Z,99773.98
2017-08-24T13:15:24.581Z,99771.42
2017-08-24T13:17:50.659Z,99776.97
2017-08-24T13:20:16.719Z,99780.19
2017-08-24T13:22:42.826Z,99775.06
2017-08-24T13:25:08.927Z,99772.50
2017-08-24T13:27:35.005Z,99773.46
2017-08-24T13:30:01.160Z,99774.91
2017-08-24T13:32:27.252Z,99774.12
2017-08-24T13:34:53.311Z,99770.31
2017-08-24T13:37:19.388Z,99775.62
2017-08-24T13:39:45.503Z,99780.02
2017-08-24T13:42:11.641Z,99771.59
2017-08-24T13:44:37.720Z,99784.56
2017-08-24T13:47:03.824Z,99781.03
2017-08-24T13:49:29.921Z,99781.11
2017-08-24T13:51:56.004Z,99782.98
2017-08-24T13:54:22.136Z,99784.06
2017-08-24T13:56:48.234Z,99776.16
2017-08-24T13:59:14.307Z,99782.66
2017-08-24T14:01:40.373Z,99786.71
2017-08-24T14:04:06.488Z,99788.12
2017-08-24T14:06:32.580Z,99785.16
2017-08-24T14:08:58.627Z,99790.17
2017-08-24T14:11:24.788Z,99783.14
2017-08-24T14:13:50.899Z,99789.67
2017-08-24T14:16:16.996Z,99789.15
2017-08-24T14:18:43.096Z,99794.47
2017-08-24T14:21:09.168Z,99787.54
2017-08-24T14:23:35.283Z,99789.33
2017-08-24T14:26:01.454Z,99792.34
2017-08-24T14:28:27.564Z,99795.77
2017-08-24T14:30:53.668Z,99788.57
2017-08-24T14:33:19.794Z,99801.36
2017-08-24T14:35:45.863Z,99797.28
2017-08-24T14:38:11.974Z,99800.81
2017-08-24T14:40:38.079Z,99799.86
2017-08-24T14:43:04.172Z,99798.23
2017-08-24T14:45:30.289Z,99793.22
2017-08-24T14:47:56.661Z,99802.27
2017-08-24T14:50:22.748Z,99798.23
2017-08-24T14:52:48.871Z,99798.28
2017-08-24T14:55:15.003Z,99794.98
2017-08-24T14:57:41.141Z,99791.89
2017-08-24T15:00:08.112Z,99795.22
2017-08-24T15:02:34.242Z,99800.56
2017-08-24T15:05:00.360Z,99812.88
2017-08-24T15:07:26.457Z,99803.47
2017-08-24T15:09:52.591Z,99803.42
2017-08-24T15:12:18.694Z,99811.19
2017-08-24T15:14:44.880Z,99815.30
2017-08-24T15:17:11.045Z,99806.45
2017-08-24T15:19:37.172Z,99813.73
2017-08-24T15:22:03.522Z,99812.77
2017-08-24T15:24:29.655Z,99821.69
2017-08-24T15:26:55.782Z,99816.03
2017-08-24T15:29:21.938Z,99821.13
2017-08-24T15:31:48.042Z,99823.88
2017-08-24T15:34:14.144Z,99821.48
2017-08-24T15:36:40.286Z,99822.56
2017-08-24T15:39:06.400Z,99815.98
2017-08-24T15:41:32.522Z,99813.28
2017-08-24T15:43:58.662Z,99820.08
2017-08-24T15:46:24.790Z,99824.26
2017-08-24T15:48:50.920Z,99830.81
2017-08-24T15:51:17.264Z,99826.41
2017-08-24T15:53:43.368Z,99821.38
2017-08-24T15:56:09.492Z,99815.48
2017-08-24T15:58:35.656Z,99821.64
2017-08-24T16:01:01.742Z,99826.30
2017-08-24T16:03:27.908Z,99818.20
2017-08-24T16:05:53.987Z,99820.88
2017-08-24T16:08:20.115Z,99823.53
2017-08-24T16:10:46.292Z,99831.54
2017-08-24T16:13:12.426Z,99824.16
2017-08-24T16:15:38.513Z,99827.59
2017-08-24T16:18:04.622Z,99834.52
2017-08-24T16:20:30.816Z,99839.42
2017-08-24T16:22:56.927Z,99838.37
2017-08-24T16:25:23.011Z,99841.53
2017-08-24T16:27:49.164Z,99837.89
2017-08-24T16:30:15.259Z,99834.07
2017-08-24T16:32:41.341Z,99841.09
2017-08-24T16:35:07.476Z,99838.94
2017-08-24T16:37:33.614Z,99852.84
2017-08-24T16:39:59.714Z,99848.84
2017-08-24T16:42:25.813Z,99852.08
2017-08-24T16:44:51.894Z,99858.00
2017-08-24T16:47:18.569Z,99860.36
2017-08-24T16:49:44.698Z,99864.05
2017-08-24T16:52:10.817Z,99864.48
2017-08-24T16:54:36.944Z,99866.65
2017-08-24T16:57:03.126Z,99868.61
2017-08-24T16:59:29.512Z,99867.72
2017-08-24T17:01:55.617Z,99872.88
2017-08-24T17:04:21.823Z,99877.56
2017-08-24T17:06:47.934Z,99873.74
2017-08-24T17:09:14.025Z,99874.71
2017-08-24T17:11:40.140Z,99878.80
2017-08-24T17:14:06.225Z,99880.70
2017-08-24T17:16:32.331Z,99885.41
2017-08-24T17:18:58.422Z,99882.67
2017-08-24T17:21:24.549Z,99886.94
2017-08-24T17:23:50.778Z,99880.15
2017-08-24T17:26:16.972Z,99878.92
2017-08-24T17:28:43.096Z,99885.61
2017-08-24T17:31:09.198Z,99884.40
2017-08-24T17:33:35.355Z,99891.12
2017-08-24T17:36:01.566Z,99890.73
2017-08-24T17:38:27.710Z,99895.25
2017-08-24T17:40:54.887Z,99894.13
2017-08-24T17:43:21.064Z,99894.67
2017-08-24T17:45:47.157Z,99891.81
2017-08-24T17:48:13.251Z,99888.67
2017-08-24T17:50:39.437Z,99892.02
2017-08-24T17:53:05.571Z,99895.53
2017-08-24T17:55:31.974Z,99891.03
2017-08-24T17:57:58.109Z,99899.02
2017-08-24T18:00:24.229Z,99895.47
2017-08-24T18:02:50.461Z,99898.25
2017-08-24T18:05:17.400Z,99901.53
2017-08-24T18:07:43.524Z,99900.34
2017-08-24T18:10:09.626Z,99903.08
2017-08-24T18:12:35.726Z,99901.61
2017-08-24T18:15:01.944Z,99908.16
2017-08-24T18:17:28.048Z,99911.41
2017-08-24T18:19:54.243Z,99913.62
2017-08-24T18:22:20.391Z,99916.45
2017-08-24T18:24:46.508Z,99922.02
2017-08-24T18:27:12.666Z,99921.20
2017-08-24T18:29:38.870Z,99919.33
2017-08-24T18:32:04.973Z,99919.63
2017-08-24T18:34:31.372Z,99922.88
2017-08-24T18:36:57.512Z,99925.98
2017-08-24T18:39:23.785Z,99923.72
2017-08-24T18:41:49.967Z,99927.64
2017-08-24T18:44:16.097Z,99939.56
2017-08-24T18:46:42.203Z,99931.61
2017-08-24T18:49:08.331Z,99935.97
2017-08-24T18:51:34.390Z,99943.95
2017-08-24T18:54:00.477Z,99947.92
2017-08-24T18:56:26.748Z,99952.04
2017-08-24T18:58:52.812Z,99953.22
2017-08-24T19:01:18.942Z,99951.73
2017-08-24T19:03:45.089Z,99958.93
2017-08-24T19:06:11.170Z,99962.20
2017-08-24T19:08:37.265Z,99963.22
2017-08-24T19:11:05.381Z,99962.82
2017-08-24T19:13:31.496Z,99970.82
2017-08-24T19:15:57.636Z,99969.98
2017-08-24T19:18:23.746Z,99969.87
2017-08-24T19:20:49.867Z,99965.50
2017-08-24T19:23:16.032Z,99974.62
2017-08-24T19:25:42.146Z,99976.18
2017-08-24T19:28:08.254Z,99980.89
2017-08-24T19:30:34.370Z,99978.76
2017-08-24T19:33:00.472Z,99974.28
2017-08-24T19:35:26.604Z,99981.48
2017-08-24T19:37:52.711Z,99977.66
2017-08-24T19:40:18.815Z,99980.58
2017-08-24T19:42:44.932Z,99985.06
2017-08-24T19:45:11.248Z,99989.12
2017-08-24T19:47:37.351Z,99988.90
2017-08-24T19:50:03.461Z,99989.02
2017-08-24T19:52:29.622Z,99991.31
2017-08-24T19:54:55.688Z,99991.00
2017-08-24T19:57:21.805Z,100000.48
2017-08-24T19:59:47.945Z,100001.12
2017-08-24T20:02:14.080Z,99999.43
2017-08-24T20:04:40.197Z,100005.89
2017-08-24T20:07:07.340Z,100008.59
2017-08-24T20:09:33.435Z,100009.19
2017-08-24T20:11:59.621Z,100008.35
2017-08-24T20:14:25.758Z,100011.39
2017-08-24T20:16:51.872Z,100009.19
2017-08-24T20:19:18.010Z,100013.95
2017-08-24T20:21:44.138Z,100018.27
2017-08-24T20:24:10.263Z,100018.39
2017-08-24T20:26:36.397Z,100017.38
2017-08-24T20:29:02.515Z,100019.34
2017-08-24T20:31:28.741Z,100010.59
2017-08-24T20:33:54.837Z,100014.27
2017-08-24T20:36:20.940Z,100012.60
2017-08-24T20:38:47.094Z,100017.59
2017-08-24T20:41:13.215Z,100020.72
2017-08-24T20:43:39.312Z,100021.67
2017-08-24T20:46:05.423Z,100019.67
2017-08-24T20:48:31.517Z,100018.27
2017-08-24T20:50:57.854Z,100020.75
2017-08-24T20:53:23.975Z,100027.22
2017-08-24T20:55:50.086Z,100028.75
2017-08-24T20:58:16.206Z,100027.21
2017-08-24T21:00:42.299Z,100027.61
2017-08-24T21:03:08.452Z,100036.39
2017-08-24T21:05:34.630Z,100034.10
2017-08-24T21:08:00.732Z,100038.56
2017-08-24T21:10:26.829Z,100046.79
2017-08-24T21:12:52.951Z,100043.91
2017-08-24T21:15:19.048Z,100047.45
2017-08-24T21:17:45.118Z,100043.91
2017-08-24T21:20:11.309Z,100045.31
2017-08-24T21:22:37.432Z,100042.59
2017-08-24T21:25:03.561Z,100044.27
2017-08-24T21:27:29.641Z,100040.83
2017-08-24T21:29:55.761Z,100035.61
2017-08-24T21:32:21.843Z,100042.19
2017-08-24T21:34:48.151Z,100036.03
2017-08-24T21:37:14.239Z,100039.25
2017-08-24T21:39:40.367Z,100031.23
2017-08-24T21:42:06.529Z,100034.64
2017-08-24T21:44:32.632Z,100028.52
2017-08-24T21:46:58.718Z,100031.17
2017-08-24T21:49:24.847Z,100028.88
2017-08-24T21:51:50.980Z,100034.28
2017-08-24T21:54:17.099Z,100033.27
2017-08-24T21:56:43.214Z,100043.04
2017-08-24T21:59:09.311Z,100039.83
2017-08-24T22:01:35.470Z,100047.17
2017-08-24T22:04:01.548Z,100053.18
2017-08-24T22:06:27.657Z,100059.84
2017-08-24T22:08:53.801Z,100060.92
2017-08-24T22:11:19.918Z,100064.47
2017-08-24T22:13:46.027Z,100067.59
2017-08-24T22:16:12.155Z,100076.91
2017-08-24T22:18:38.311Z,100071.83
2017-08-24T22:21:04.369Z,100071.11
2017-08-24T22:23:30.467Z,100073.39
2017-08-24T22:25:56.583Z,100078.50
2017-08-24T22:28:22.679Z,100074.91
2017-08-24T22:30:48.841Z,100080.16
2017-08-24T22:33:14.926Z,100083.64
2017-08-24T22:35:41.029Z,100079.41
2017-08-24T22:38:07.164Z,100081.19
2017-08-24T22:40:33.308Z,100081.61
2017-08-24T22:42:59.410Z,100087.77
2017-08-24T22:45:25.559Z,100091.68
2017-08-24T22:47:51.683Z,100092.73
2017-08-24T22:50:17.785Z,100086.77
2017-08-24T22:52:44.692Z,100087.75
2017-08-24T22:55:16.954Z,100079.44
2017-08-24T22:57:49.124Z,100085.75
2017-08-24T23:00:21.278Z,100088.32
2017-08-24T23:02:53.660Z,100085.11
2017-08-24T23:05:19.760Z,100082.38
2017-08-24T23:07:45.886Z,100090.56
2017-08-24T23:10:12.005Z,100089.00
2017-08-24T23:12:38.131Z,100081.39
2017-08-24T23:15:04.220Z,100088.02
2017-08-24T23:17:30.329Z,100086.32
2017-08-24T23:19:56.470Z,100089.22
2017-08-24T23:22:22.549Z,100089.13
2017-08-24T23:24:48.733Z,100089.02
2017-08-24T23:27:14.834Z,100094.84
2017-08-24T23:29:40.919Z,100092.99
2017-08-24T23:32:07.104Z,100093.75
2017-08-24T23:34:33.209Z,100095.80
2017-08-24T23:36:59.287Z,100097.75
2017-08-24T23:39:25.383Z,100098.48
2017-08-24T23:41:51.489Z,100098.95
2017-08-24T23:44:17.641Z,100099.28
2017-08-24T23:46:43.736Z,100099.03
2017-08-24T23:49:09.893Z,100100.63
2017-08-24T23:51:35.978Z,100101.03
2017-08-24T23:54:02.113Z,100096.56
2017-08-24T23:56:28.239Z,100094.27
2017-08-24T23:58:54.345Z,100093.66
